Time;durP1;ratioP1;P1;durP2;ratioP2;P2;SDS_P1;SDS_P2;PMS_P1;PMS_P2;Temp;Humidity;BMP_temperature;BMP_pressure;BME280_temperature;BME280_humidity;BME280_pressure;Samples;Min_cycle;Max_cycle;Signal;HPM_P1;HPM_P2
2021/06/24 00:02:07;;;;;;;0.10;0.10;;;;;;;18.04;55.19;102336.19;5054700;28;20056;-85
2021/06/24 00:04:34;;;;;;;0.15;0.15;;;;;;;18.09;54.87;102334.28;5055715;28;20040;-86
2021/06/24 00:07:00;;;;;;;0.03;0.03;;;;;;;18.07;55.59;102332.56;5055928;28;20021;-86
2021/06/24 00:09:26;;;;;;;0.00;0.00;;;;;;;18.13;55.39;102328.81;5055918;28;20476;-86
2021/06/24 00:11:53;;;;;;;0.15;0.15;;;;;;;18.14;55.10;102327.88;5055913;28;20357;-86
2021/06/24 00:14:19;;;;;;;0.00;0.00;;;;;;;18.14;55.32;102331.44;5055745;28;20025;-85
2021/06/24 00:16:46;;;;;;;0.00;0.00;;;;;;;18.16;55.09;102328.72;5055862;28;20036;-86
2021/06/24 00:19:13;;;;;;;0.00;0.00;;;;;;;18.12;54.93;102322.56;5056048;28;20487;-87
2021/06/24 00:21:39;;;;;;;0.10;0.10;;;;;;;18.07;55.47;102317.34;5053912;28;20029;-87
2021/06/24 00:24:06;;;;;;;0.22;0.22;;;;;;;18.11;55.32;102310.09;5054402;28;20033;-87
2021/06/24 00:26:32;;;;;;;0.00;0.00;;;;;;;18.06;55.43;102302.16;5055114;28;20031;-87
2021/06/24 00:28:59;;;;;;;0.00;0.00;;;;;;;18.06;55.52;102302.16;5055692;28;20039;-87
2021/06/24 00:31:25;;;;;;;0.10;0.10;;;;;;;18.06;56.34;102306.66;5054875;28;20032;-87
2021/06/24 00:33:52;;;;;;;0.50;0.50;;;;;;;18.05;55.82;102303.06;5055533;28;20384;-86
2021/06/24 00:36:18;;;;;;;0.00;0.00;;;;;;;17.96;56.22;102311.41;5056618;28;20049;-85
2021/06/24 00:38:44;;;;;;;0.60;0.60;;;;;;;18.01;56.03;102317.50;5054936;28;20465;-86
2021/06/24 00:41:12;;;;;;;0.00;0.00;;;;;;;17.96;55.82;102322.13;5055198;28;20103;-85
2021/06/24 00:43:39;;;;;;;0.00;0.00;;;;;;;17.98;55.86;102320.28;5055142;28;20082;-89
2021/06/24 00:46:05;;;;;;;0.10;0.10;;;;;;;18.03;56.14;102313.00;5055399;28;20044;-85
2021/06/24 00:48:32;;;;;;;0.00;0.00;;;;;;;18.06;55.73;102307.53;5054778;28;20414;-87
2021/06/24 00:50:58;;;;;;;0.10;0.10;;;;;;;18.02;56.15;102311.22;5055723;28;20171;-85
2021/06/24 00:53:25;;;;;;;0.00;0.00;;;;;;;17.91;56.61;102307.94;5054006;28;20064;-84
2021/06/24 00:55:52;;;;;;;0.17;0.17;;;;;;;18.10;55.84;102322.59;5054952;28;20025;-85
2021/06/24 00:58:23;;;;;;;0.00;0.00;;;;;;;18.11;55.88;102310.94;5055102;28;20108;-85
2021/06/24 01:00:52;;;;;;;0.00;0.00;;;;;;;18.15;55.90;102310.88;5054014;28;20098;-85
2021/06/24 01:03:19;;;;;;;0.00;0.00;;;;;;;18.05;56.08;102321.84;5054939;28;20025;-84
2021/06/24 01:05:47;;;;;;;0.40;0.40;;;;;;;18.07;56.02;102325.38;5052785;28;20025;-84
2021/06/24 01:08:15;;;;;;;0.10;0.10;;;;;;;18.14;56.25;102333.25;5054797;28;20017;-83
2021/06/24 01:10:44;;;;;;;0.28;0.28;;;;;;;18.19;56.28;102323.28;5054471;28;20055;-86
2021/06/24 01:13:12;;;;;;;0.10;0.10;;;;;;;18.25;55.82;102329.31;5054864;28;20405;-86
2021/06/24 01:15:39;;;;;;;0.05;0.05;;;;;;;18.26;56.08;102333.78;5054615;28;20100;-86
2021/06/24 01:18:06;;;;;;;0.00;0.00;;;;;;;18.27;56.40;102334.69;5054668;28;20028;-86
2021/06/24 01:20:36;;;;;;;0.03;0.03;;;;;;;18.29;56.41;102334.63;5055051;28;20036;-87
2021/06/24 01:23:04;;;;;;;0.00;0.00;;;;;;;18.30;56.15;102331.88;5054545;28;20079;-85
2021/06/24 01:25:31;;;;;;;0.00;0.00;;;;;;;18.27;56.26;102332.84;5052619;28;20028;-86
2021/06/24 01:28:02;;;;;;;0.68;0.68;;;;;;;18.22;56.41;102332.13;5054706;28;20021;-86
2021/06/24 01:30:28;;;;;;;0.00;0.00;;;;;;;18.15;56.10;102329.66;5053058;28;20078;-86
2021/06/24 01:32:56;;;;;;;0.05;0.05;;;;;;;18.13;56.77;102318.06;5054630;28;20103;-85
2021/06/24 01:35:25;;;;;;;0.10;0.10;;;;;;;18.18;56.50;102311.69;5053397;28;20036;-86
2021/06/24 01:37:57;;;;;;;0.00;0.00;;;;;;;18.21;56.15;102311.56;5054000;28;20384;-84
2021/06/24 01:40:24;;;;;;;0.10;0.10;;;;;;;18.21;56.44;102310.69;5054140;28;20035;-84
2021/06/24 01:42:51;;;;;;;0.10;0.10;;;;;;;18.22;56.43;102317.84;5053791;28;20032;-83
2021/06/24 01:45:18;;;;;;;0.50;0.50;;;;;;;18.23;56.35;102320.47;5054472;28;20028;-83
2021/06/24 01:47:44;;;;;;;0.10;0.10;;;;;;;18.23;56.35;102319.56;5053600;28;20026;-84
2021/06/24 01:50:11;;;;;;;0.00;0.00;;;;;;;18.23;56.54;102319.56;5054067;28;20075;-84
2021/06/24 01:52:41;;;;;;;0.03;0.03;;;;;;;18.27;56.86;102318.56;5053957;28;20029;-84
2021/06/24 01:55:08;;;;;;;0.40;0.40;;;;;;;18.24;56.37;102311.50;5053875;28;20035;-84
2021/06/24 01:57:36;;;;;;;0.10;0.10;;;;;;;18.20;56.69;102319.66;5054079;28;20439;-84
2021/06/24 02:00:06;;;;;;;0.00;0.00;;;;;;;18.22;56.92;102313.34;5053675;28;20029;-84
2021/06/24 02:02:33;;;;;;;0.00;0.00;;;;;;;18.22;56.89;102301.75;5053906;28;20033;-84
2021/06/24 02:04:59;;;;;;;0.08;0.08;;;;;;;18.05;57.21;102303.06;5053648;28;20036;-84
2021/06/24 02:07:25;;;;;;;0.10;0.10;;;;;;;18.08;56.82;102294.97;5053735;28;20385;-84
2021/06/24 02:09:52;;;;;;;0.00;0.00;;;;;;;18.10;56.73;102294.91;5052970;28;20025;-85
2021/06/24 02:12:18;;;;;;;0.00;0.00;;;;;;;18.09;56.97;102291.34;5053982;28;20063;-84
2021/06/24 02:14:45;;;;;;;1.02;1.00;;;;;;;18.09;56.86;102296.72;5052714;28;20437;-85
2021/06/24 02:17:11;;;;;;;0.00;0.00;;;;;;;18.04;57.01;102293.25;5053838;28;20380;-84
2021/06/24 02:19:37;;;;;;;0.03;0.03;;;;;;;18.06;57.41;102283.38;5053536;28;20033;-84
2021/06/24 02:22:04;;;;;;;0.00;0.00;;;;;;;18.06;56.93;102275.34;5053791;28;20087;-86
2021/06/24 02:24:30;;;;;;;0.00;0.00;;;;;;;18.09;57.14;102277.03;5053469;28;20029;-84
2021/06/24 02:26:57;;;;;;;0.22;0.17;;;;;;;18.07;57.58;102278.91;5052207;28;20468;-84
2021/06/24 02:29:23;;;;;;;0.80;0.80;;;;;;;18.03;57.38;102285.28;5053607;28;20029;-83
2021/06/24 02:31:49;;;;;;;0.08;0.08;;;;;;;18.06;57.48;102280.69;5053542;28;20146;-83
2021/06/24 02:34:17;;;;;;;0.00;0.00;;;;;;;18.09;56.99;102286.00;5053560;28;20082;-86
2021/06/24 02:36:44;;;;;;;0.10;0.10;;;;;;;18.03;57.63;102278.13;5053206;28;20104;-83
2021/06/24 02:39:10;;;;;;;0.00;0.00;;;;;;;18.06;57.13;102269.97;5053647;28;20032;-83
2021/06/24 02:41:36;;;;;;;0.10;0.10;;;;;;;18.00;57.33;102269.28;5053493;28;20036;-83
2021/06/24 02:44:03;;;;;;;0.00;0.00;;;;;;;17.94;58.09;102267.63;5052168;28;20033;-85
2021/06/24 02:46:30;;;;;;;0.10;0.10;;;;;;;17.97;57.92;102272.94;5053302;28;20033;-83
2021/06/24 02:48:56;;;;;;;0.00;0.00;;;;;;;17.92;57.96;102274.84;5055981;28;20052;-83
2021/06/24 02:51:23;;;;;;;0.00;0.00;;;;;;;17.86;57.97;102277.69;5057332;28;20473;-84
2021/06/24 02:53:49;;;;;;;0.03;0.03;;;;;;;17.86;57.83;102281.22;5057496;28;20029;-84
2021/06/24 02:56:16;;;;;;;0.00;0.00;;;;;;;17.91;57.72;102270.38;5056932;28;20033;-85
2021/06/24 02:58:42;;;;;;;0.00;0.00;;;;;;;17.90;58.01;102279.34;5057393;28;20036;-87
2021/06/24 03:01:09;;;;;;;0.05;0.05;;;;;;;17.90;57.87;102279.34;5055782;28;20079;-87
2021/06/24 03:03:35;;;;;;;0.00;0.00;;;;;;;17.88;58.21;102281.19;5056844;28;20442;-86
2021/06/24 03:06:01;;;;;;;0.10;0.10;;;;;;;17.88;58.24;102286.53;5056710;28;20453;-86
2021/06/24 03:08:28;;;;;;;0.00;0.00;;;;;;;17.89;57.98;102282.94;5057096;28;20502;-88
2021/06/24 03:10:55;;;;;;;0.10;0.10;;;;;;;17.86;58.05;102285.72;5057428;28;20040;-87
2021/06/24 03:13:22;;;;;;;0.10;0.10;;;;;;;17.81;58.72;102287.63;5056989;28;20021;-87
2021/06/24 03:15:48;;;;;;;0.10;0.10;;;;;;;17.90;57.74;102279.34;5057368;28;20029;-87
2021/06/24 03:18:14;;;;;;;0.10;0.10;;;;;;;17.92;58.01;102273.03;5056910;28;20032;-87
2021/06/24 03:20:41;;;;;;;0.05;0.05;;;;;;;17.93;58.04;102273.88;5056770;28;20029;-87
2021/06/24 03:23:07;;;;;;;0.00;0.00;;;;;;;17.93;58.24;102271.19;5055636;28;20086;-87
2021/06/24 03:25:33;;;;;;;0.10;0.10;;;;;;;17.96;58.03;102281.91;5056362;28;20049;-87
2021/06/24 03:28:00;;;;;;;0.10;0.10;;;;;;;17.98;58.18;102271.13;5056180;28;20452;-86
2021/06/24 03:30:26;;;;;;;0.10;0.10;;;;;;;18.02;57.44;102272.78;5057052;28;20484;-87
2021/06/24 03:32:52;;;;;;;0.00;0.00;;;;;;;18.03;57.54;102275.44;5056602;28;20040;-87
2021/06/24 03:35:19;;;;;;;0.00;0.00;;;;;;;18.00;57.96;102280.00;5056243;28;20032;-87
2021/06/24 03:37:45;;;;;;;0.10;0.10;;;;;;;18.01;57.79;102279.97;5056474;28;20116;-86
2021/06/24 03:40:17;;;;;;;0.00;0.00;;;;;;;17.98;57.81;102280.06;5056752;28;20025;-87
2021/06/24 03:42:44;;;;;;;0.10;0.10;;;;;;;18.00;57.83;102280.00;5056608;28;20376;-87
2021/06/24 03:45:10;;;;;;;0.00;0.00;;;;;;;18.04;57.82;102277.16;5056025;28;20102;-87
2021/06/24 03:47:36;;;;;;;0.10;0.10;;;;;;;18.03;58.23;102278.13;5055973;28;20029;-87
2021/06/24 03:50:04;;;;;;;0.00;0.00;;;;;;;18.04;58.21;102281.66;5056664;28;20029;-87
2021/06/24 03:52:30;;;;;;;0.00;0.00;;;;;;;18.04;57.85;102281.66;5055985;28;20037;-87
2021/06/24 03:54:57;;;;;;;0.00;0.00;;;;;;;18.09;57.68;102271.69;5056078;28;20037;-88
2021/06/24 03:57:23;;;;;;;0.00;0.00;;;;;;;18.06;57.48;102278.03;5056250;28;20095;-87
2021/06/24 03:59:49;;;;;;;0.00;0.00;;;;;;;18.04;58.04;102266.44;5055796;28;20033;-87
2021/06/24 04:02:15;;;;;;;0.10;0.10;;;;;;;18.06;57.72;102272.66;5056151;28;20072;-88
2021/06/24 04:04:41;;;;;;;0.10;0.10;;;;;;;18.05;57.65;102273.56;5055858;28;20025;-88
2021/06/24 04:07:08;;;;;;;0.10;0.10;;;;;;;18.04;57.70;102271.81;5055328;28;20108;-87
2021/06/24 04:09:34;;;;;;;0.22;0.22;;;;;;;18.02;56.90;102273.69;5055668;28;20094;-87
2021/06/24 04:12:00;;;;;;;0.00;0.00;;;;;;;18.02;57.03;102268.31;5055029;28;20032;-87
2021/06/24 04:14:26;;;;;;;0.10;0.10;;;;;;;17.95;57.23;102267.59;5056223;28;20389;-87
2021/06/24 04:16:52;;;;;;;0.00;0.00;;;;;;;17.98;56.63;102277.38;5055289;28;20112;-88
2021/06/24 04:19:20;;;;;;;0.10;0.10;;;;;;;18.02;56.75;102273.69;5055568;28;20456;-89
2021/06/24 04:21:46;;;;;;;0.00;0.00;;;;;;;18.06;57.13;102279.84;5055142;28;20036;-85
2021/06/24 04:24:13;;;;;;;0.10;0.10;;;;;;;18.07;56.77;102277.09;5055704;28;20032;-85
2021/06/24 04:26:39;;;;;;;0.00;0.00;;;;;;;18.05;56.99;102270.88;5055827;28;20025;-87
2021/06/24 04:29:05;;;;;;;0.20;0.20;;;;;;;18.02;57.05;102273.69;5055755;28;20483;-87
2021/06/24 04:31:31;;;;;;;0.03;0.03;;;;;;;18.00;56.99;102271.97;5054252;28;20025;-87
2021/06/24 04:33:57;;;;;;;0.10;0.10;;;;;;;18.05;56.82;102278.94;5055601;28;20037;-86
2021/06/24 04:36:24;;;;;;;0.35;0.35;;;;;;;17.93;57.24;102276.56;5055200;28;20045;-87
2021/06/24 04:38:50;;;;;;;0.00;0.00;;;;;;;18.01;56.83;102266.53;5054941;28;20075;-87
2021/06/24 04:41:17;;;;;;;0.00;0.00;;;;;;;17.92;57.81;102266.78;5054791;28;20037;-86
2021/06/24 04:43:43;;;;;;;0.10;0.10;;;;;;;18.00;56.63;102272.81;5054770;28;20052;-86
2021/06/24 04:46:09;;;;;;;0.00;0.00;;;;;;;17.94;57.20;102275.69;5055330;28;20409;-85
2021/06/24 04:48:35;;;;;;;0.00;0.00;;;;;;;17.93;57.54;102279.25;5055573;28;20036;-86
2021/06/24 04:51:01;;;;;;;0.08;0.08;;;;;;;17.92;57.35;102277.50;5054911;28;20177;-87
2021/06/24 04:53:28;;;;;;;0.00;0.00;;;;;;;17.97;57.04;102262.19;5054731;28;20033;-85
2021/06/24 04:55:54;;;;;;;0.10;0.10;;;;;;;18.02;56.65;102267.41;5055063;28;20032;-88
2021/06/24 04:58:20;;;;;;;0.10;0.10;;;;;;;18.08;56.70;102261.88;5054995;28;20086;-87
2021/06/24 05:00:46;;;;;;;0.10;0.10;;;;;;;17.99;57.19;102256.78;5054072;28;20021;-87
2021/06/24 05:03:12;;;;;;;0.00;0.00;;;;;;;18.06;56.78;102256.56;5054747;28;20029;-86
2021/06/24 05:05:41;;;;;;;0.10;0.10;;;;;;;17.98;56.51;102261.28;5054644;28;20025;-84
2021/06/24 05:08:15;;;;;;;1.23;0.85;;;;;;;18.06;56.22;102259.25;5054730;28;20427;-86
2021/06/24 05:10:41;;;;;;;0.43;0.43;;;;;;;18.06;55.97;102261.06;5053991;28;20025;-86
2021/06/24 05:13:07;;;;;;;0.00;0.00;;;;;;;18.15;56.17;102266.16;5053561;28;20029;-86
2021/06/24 05:15:35;;;;;;;0.20;0.20;;;;;;;18.14;55.73;102260.84;5054945;28;20456;-87
2021/06/24 05:18:03;;;;;;;0.08;0.08;;;;;;;18.18;55.89;102252.66;5054584;28;20113;-87
2021/06/24 05:20:31;;;;;;;0.00;0.00;;;;;;;18.26;55.88;102255.09;5054637;28;20033;-86
2021/06/24 05:22:59;;;;;;;0.10;0.10;;;;;;;18.27;55.49;102251.50;5054950;28;20040;-88
2021/06/24 05:25:25;;;;;;;0.10;0.10;;;;;;;18.33;55.23;102245.94;5054359;28;20036;-88
2021/06/24 05:27:51;;;;;;;0.00;0.00;;;;;;;18.36;55.55;102240.47;5054065;28;20087;-87
2021/06/24 05:30:18;;;;;;;0.00;0.00;;;;;;;18.35;54.65;102248.59;5054379;28;20035;-86
2021/06/24 05:32:45;;;;;;;0.35;0.35;;;;;;;18.38;55.18;102252.06;5053824;28;20060;-83
2021/06/24 05:35:12;;;;;;;0.10;0.10;;;;;;;18.45;54.93;102258.09;5053640;28;20107;-85
2021/06/24 05:37:40;;;;;;;0.00;0.00;;;;;;;18.52;55.11;102250.75;5056230;28;20052;-85
2021/06/24 05:40:08;;;;;;;0.17;0.17;;;;;;;18.54;54.87;102244.41;5056406;28;20064;-86
2021/06/24 05:42:34;;;;;;;0.00;0.00;;;;;;;18.66;54.63;102240.44;5055153;28;20091;-85
2021/06/24 05:45:01;;;;;;;0.00;0.00;;;;;;;18.69;54.20;102243.06;5054868;28;20025;-84
2021/06/24 05:47:31;;;;;;;0.45;0.45;;;;;;;18.81;54.54;102239.06;5054867;28;20028;-83
2021/06/24 05:49:58;;;;;;;0.10;0.10;;;;;;;18.75;54.25;102244.66;5055257;28;20021;-84
2021/06/24 05:52:25;;;;;;;0.20;0.20;;;;;;;18.76;53.19;102249.09;5053623;28;20029;-85
2021/06/24 05:54:51;;;;;;;0.00;0.00;;;;;;;18.76;53.40;102247.28;5053948;28;20029;-88
2021/06/24 05:57:17;;;;;;;0.10;0.10;;;;;;;18.81;53.36;102247.13;5052354;28;20082;-85
2021/06/24 05:59:43;;;;;;;0.00;0.00;;;;;;;18.86;52.95;102233.56;5054280;28;20112;-85
2021/06/24 06:02:09;;;;;;;0.10;0.10;;;;;;;18.87;53.42;102235.34;5053912;28;20040;-87
2021/06/24 06:04:36;;;;;;;1.48;1.38;;;;;;;18.90;52.69;102235.22;5053530;28;20119;-85
2021/06/24 06:07:02;;;;;;;0.30;0.30;;;;;;;18.87;52.58;102230.81;5044827;28;20024;-86
2021/06/24 06:09:28;;;;;;;0.13;0.13;;;;;;;19.01;52.91;102227.72;5045510;28;20259;-86
2021/06/24 06:11:55;;;;;;;0.00;0.00;;;;;;;19.05;52.92;102224.00;5041881;28;20017;-87
2021/06/24 06:14:21;;;;;;;0.30;0.30;;;;;;;19.03;52.98;102219.63;5044654;28;20025;-85
2021/06/24 06:16:47;;;;;;;0.00;0.00;;;;;;;19.15;53.18;102223.69;5050760;28;20094;-86
2021/06/24 06:19:14;;;;;;;0.03;0.03;;;;;;;19.23;52.55;102216.25;5045416;28;20105;-88
2021/06/24 06:21:40;;;;;;;0.68;0.68;;;;;;;19.30;52.25;102211.53;5042508;28;20029;-87
2021/06/24 06:24:06;;;;;;;3.42;0.43;;;;;;;19.43;52.32;102220.03;5046105;28;20059;-85
2021/06/24 06:26:33;;;;;;;0.10;0.10;;;;;;;19.47;52.37;102219.00;5047908;28;20060;-86
2021/06/24 06:29:03;;;;;;;0.10;0.10;;;;;;;19.55;51.27;102222.28;5047582;28;20032;-87
2021/06/24 06:31:31;;;;;;;17.80;0.75;;;;;;;19.62;51.71;102213.06;5059754;28;20571;-88
2021/06/24 06:33:57;;;;;;;0.10;0.10;;;;;;;19.73;51.80;102210.00;5072791;28;20108;-88
2021/06/24 06:36:23;;;;;;;0.10;0.10;;;;;;;19.83;50.86;102207.88;5077674;28;20028;-88
2021/06/24 06:38:50;;;;;;;0.00;0.00;;;;;;;19.93;51.31;102203.03;5077888;28;20029;-91
2021/06/24 06:41:16;;;;;;;0.15;0.15;;;;;;;20.03;51.33;102213.38;5057652;28;20032;-87
2021/06/24 06:43:42;;;;;;;0.00;0.00;;;;;;;20.11;50.45;102213.09;5061880;28;20083;-85
2021/06/24 06:46:09;;;;;;;0.00;0.00;;;;;;;20.13;50.20;102210.34;5061534;28;20032;-84
2021/06/24 06:48:35;;;;;;;0.00;0.00;;;;;;;20.28;50.73;102214.25;5051638;28;20017;-85
2021/06/24 06:51:01;;;;;;;0.00;0.00;;;;;;;20.37;50.32;102211.19;5046706;28;20464;-85
2021/06/24 06:53:28;;;;;;;0.05;0.05;;;;;;;20.47;50.03;102209.00;5047220;28;20441;-86
2021/06/24 06:55:54;;;;;;;0.08;0.08;;;;;;;20.45;50.12;102209.06;5045392;28;20381;-86
2021/06/24 06:58:24;;;;;;;0.08;0.08;;;;;;;20.51;49.78;102218.69;5048650;28;20089;-86
2021/06/24 07:00:50;;;;;;;0.10;0.10;;;;;;;20.62;49.93;102210.19;5069339;28;20033;-86
2021/06/24 07:03:16;;;;;;;0.10;0.10;;;;;;;20.55;50.62;102214.97;5061834;28;20032;-83
2021/06/24 07:05:43;;;;;;;0.10;0.10;;;;;;;20.78;49.00;102210.47;5061402;28;20029;-87
2021/06/24 07:08:10;;;;;;;0.00;0.00;;;;;;;20.83;49.10;102213.84;5077762;28;20481;-86
2021/06/24 07:10:36;;;;;;;0.10;0.10;;;;;;;20.89;48.31;102218.13;5047541;28;20036;-85
2021/06/24 07:13:02;;;;;;;0.28;0.28;;;;;;;20.78;48.63;102215.88;5055312;28;20025;-86
2021/06/24 07:15:29;;;;;;;0.65;0.65;;;;;;;20.97;48.79;102211.47;5046284;28;20030;-86
2021/06/24 07:17:55;;;;;;;0.10;0.10;;;;;;;20.95;48.42;102216.03;5044612;28;20049;-85
2021/06/24 07:20:21;;;;;;;0.10;0.10;;;;;;;20.96;48.36;102220.50;5050786;28;20037;-86
2021/06/24 07:22:47;;;;;;;0.30;0.30;;;;;;;21.02;48.18;102219.34;5052673;28;20040;-86
2021/06/24 07:25:16;;;;;;;0.40;0.40;;;;;;;21.01;47.91;102218.47;5056751;28;20487;-86
2021/06/24 07:27:42;;;;;;;0.10;0.10;;;;;;;21.06;47.90;102220.09;5047563;28;20063;-85
2021/06/24 07:30:09;;;;;;;0.10;0.10;;;;;;;21.14;48.07;102217.97;5054767;28;20025;-86
2021/06/24 07:32:35;;;;;;;0.00;0.00;;;;;;;21.19;48.06;102221.31;5052595;28;20099;-85
2021/06/24 07:35:01;;;;;;;0.10;0.10;;;;;;;21.22;48.10;102210.44;5053224;28;20071;-85
2021/06/24 07:37:28;;;;;;;0.00;0.00;;;;;;;21.22;48.03;102210.44;5057695;28;20021;-85
2021/06/24 07:39:54;;;;;;;0.10;0.10;;;;;;;21.15;47.78;102214.34;5061728;28;20036;-84
2021/06/24 07:42:20;;;;;;;0.08;0.08;;;;;;;21.21;48.76;102210.47;5074814;28;20131;-85
2021/06/24 07:44:47;;;;;;;0.00;0.00;;;;;;;21.32;46.88;102217.16;5074604;28;20027;-86
2021/06/24 07:47:21;;;;;;;4.30;0.75;;;;;;;21.43;47.84;102223.91;5085442;22;20072;-86
2021/06/24 07:49:48;;;;;;;0.08;0.08;;;;;;;21.40;47.56;102224.06;5036102;28;20033;-87
2021/06/24 07:52:15;;;;;;;0.10;0.10;;;;;;;21.40;47.31;102224.06;5044856;28;20555;-85
2021/06/24 07:54:41;;;;;;;0.10;0.10;;;;;;;21.45;47.67;102216.63;5039566;28;20033;-90
2021/06/24 07:57:07;;;;;;;0.10;0.10;;;;;;;21.58;46.76;102216.97;5055464;28;20033;-83
2021/06/24 07:59:34;;;;;;;0.10;0.10;;;;;;;21.70;46.23;102218.28;5047473;28;20035;-93
2021/06/24 08:02:01;;;;;;;0.30;0.30;;;;;;;21.57;46.44;102220.63;5055814;28;20033;-92
2021/06/24 08:04:29;;;;;;;0.10;0.10;;;;;;;21.49;46.26;102219.09;5057073;28;20033;-91
2021/06/24 08:06:56;;;;;;;0.17;0.17;;;;;;;21.62;46.91;102214.09;5056510;28;20544;-91
2021/06/24 08:09:22;;;;;;;0.10;0.10;;;;;;;21.68;48.02;102212.06;5056639;28;20477;-91
2021/06/24 08:11:49;;;;;;;0.10;0.10;;;;;;;21.77;46.79;102217.03;5055775;28;20551;-90
2021/06/24 08:14:15;;;;;;;0.43;0.43;;;;;;;21.76;47.10;102215.28;5056260;28;20550;-90
2021/06/24 08:16:41;;;;;;;0.10;0.10;;;;;;;21.85;46.79;102214.00;5051628;28;20033;-90
2021/06/24 08:19:07;;;;;;;0.00;0.00;;;;;;;21.85;45.99;102214.84;5025220;28;20021;-90
2021/06/24 08:21:34;;;;;;;0.43;0.43;;;;;;;21.85;46.32;102209.47;5026511;28;20041;-91
2021/06/24 08:24:00;;;;;;;0.10;0.10;;;;;;;22.03;46.06;102206.84;5023020;28;20030;-92
2021/06/24 08:26:26;;;;;;;1.25;0.63;;;;;;;22.15;45.50;102206.28;5025130;28;20037;-92
2021/06/24 08:28:52;;;;;;;0.10;0.10;;;;;;;22.17;44.92;102201.69;5032962;28;20057;-90
2021/06/24 08:31:18;;;;;;;0.10;0.10;;;;;;;22.14;44.23;102205.41;5034944;28;20527;-89
2021/06/24 08:33:45;;;;;;;3.70;1.35;;;;;;;22.34;44.55;102200.88;5028299;28;20121;-89
2021/06/24 08:36:11;;;;;;;0.75;0.75;;;;;;;22.27;44.69;102194.03;5026313;28;20441;-88
2021/06/24 08:38:37;;;;;;;0.55;0.55;;;;;;;22.24;44.42;102200.47;5027415;28;20504;-88
2021/06/24 08:41:04;;;;;;;0.20;0.20;;;;;;;22.23;44.57;102204.09;5025170;28;20038;-89
2021/06/24 08:43:32;;;;;;;0.10;0.10;;;;;;;22.30;44.26;102210.94;5025083;28;20029;-88
2021/06/24 08:46:02;;;;;;;0.00;0.00;;;;;;;22.51;44.56;102213.59;5022871;28;20009;-91
2021/06/24 08:48:33;;;;;;;0.00;0.00;;;;;;;22.64;44.34;102205.75;5025495;28;20087;-91
2021/06/24 08:51:00;;;;;;;0.00;0.00;;;;;;;22.68;44.13;102209.19;5026339;28;20035;-88
2021/06/24 08:53:31;;;;;;;0.20;0.20;;;;;;;22.74;43.72;102211.56;5024392;28;20032;-90
2021/06/24 08:55:57;;;;;;;0.10;0.10;;;;;;;22.67;43.28;102207.41;5024153;28;20022;-89
2021/06/24 08:58:24;;;;;;;0.10;0.10;;;;;;;22.90;44.46;102215.28;5023361;28;20384;-90
2021/06/24 09:00:51;;;;;;;0.10;0.10;;;;;;;22.85;44.30;102211.91;5005019;28;20104;-90
2021/06/24 09:03:21;;;;;;;0.28;0.28;;;;;;;22.73;43.32;102217.94;5029092;28;20437;-90
2021/06/24 09:06:07;;;;;;;0.10;0.10;;;;;;;22.79;43.68;102223.03;5025226;28;20492;-90
2021/06/24 09:08:43;;;;;;;0.82;0.82;;;;;;;22.93;42.77;102220.53;5028306;28;20049;-90
2021/06/24 09:11:14;;;;;;;0.10;0.10;;;;;;;22.89;41.95;102220.75;5030353;28;20060;-90
2021/06/24 09:13:41;;;;;;;0.20;0.20;;;;;;;22.94;43.32;102216.88;5027739;28;20037;-91
2021/06/24 09:16:27;;;;;;;0.10;0.10;;;;;;;23.06;43.43;102219.91;5058585;23;20060;-88
2021/06/24 09:19:20;;;;;;;0.08;0.08;;;;;;;23.03;43.47;102217.34;5074788;28;20090;-87
2021/06/24 09:21:56;;;;;;;0.10;0.10;;;;;;;23.27;43.40;102218.81;5074370;28;20056;-88
2021/06/24 09:27:29;;;;;;;0.10;0.10;;;;;;;23.63;42.38;102224.19;5111044;27;20395;-87
2021/06/24 09:30:14;;;;;;;0.20;0.20;;;;;;;23.81;42.18;102212.38;5112096;28;20032;-87
2021/06/24 09:32:43;;;;;;;0.10;0.10;;;;;;;23.65;42.01;102214.16;5111881;28;20020;-88
2021/06/24 09:35:22;;;;;;;0.10;0.10;;;;;;;23.78;41.88;102217.09;5111675;28;20443;-87
2021/06/24 09:38:11;;;;;;;0.30;0.30;;;;;;;23.65;40.71;102216.88;5111638;28;20479;-87
2021/06/24 09:40:57;;;;;;;0.00;0.00;;;;;;;23.71;41.83;102214.72;5110224;28;20024;-87
2021/06/24 09:46:19;;;;;;;0.10;0.10;;;;;;;23.86;41.70;102221.13;5081280;28;20407;-86
2021/06/24 09:51:34;;;;;;;0.32;0.32;;;;;;;23.64;40.53;102218.72;5056318;28;20364;-87
2021/06/24 09:54:04;;;;;;;0.10;0.10;;;;;;;23.64;42.11;102225.94;5051350;28;20033;-87
2021/06/24 09:59:15;;;;;;;0.00;0.00;;;;;;;23.53;41.71;102219.28;5111982;27;20894;-86
2021/06/24 10:07:10;;;;;;;0.10;0.10;;;;;;;23.52;41.94;102227.47;5069009;28;20404;-87
2021/06/24 10:09:39;;;;;;;0.10;0.10;;;;;;;23.56;41.04;102219.13;5051667;28;20373;-86
2021/06/24 10:12:07;;;;;;;0.10;0.10;;;;;;;23.68;41.20;102216.72;5053154;28;20030;-88
2021/06/24 10:14:33;;;;;;;0.10;0.10;;;;;;;23.81;40.70;102215.06;5051720;28;20079;-87
2021/06/24 10:17:07;;;;;;;0.10;0.10;;;;;;;23.92;40.59;102219.94;5055796;28;20029;-93
2021/06/24 10:19:37;;;;;;;0.25;0.25;;;;;;;23.93;40.19;102220.84;5052821;28;20109;-86
2021/06/24 10:22:09;;;;;;;0.65;0.65;;;;;;;24.18;38.58;102223.91;5050761;28;20472;-84
2021/06/24 10:25:06;;;;;;;0.10;0.10;;;;;;;24.32;39.14;102216.84;5050721;28;20036;-84
2021/06/24 10:27:35;;;;;;;0.30;0.30;;;;;;;24.46;39.33;102218.78;5050850;28;20041;-89
2021/06/24 10:33:15;;;;;;;0.00;0.00;;;;;;;24.90;39.12;102206.34;5132953;27;20172;-85
2021/06/24 10:35:48;;;;;;;0.10;0.10;;;;;;;24.81;39.03;102208.63;5106240;28;20040;-86
2021/06/24 10:38:17;;;;;;;0.20;0.20;;;;;;;24.73;38.62;102204.63;5089851;28;20039;-85
2021/06/24 10:40:56;;;;;;;0.10;0.10;;;;;;;24.75;39.18;102203.56;5090756;28;20032;-87
2021/06/24 10:43:24;;;;;;;0.75;0.75;;;;;;;24.62;40.65;102197.94;5090109;28;20029;-88
2021/06/24 10:46:09;;;;;;;0.10;0.10;;;;;;;24.70;40.15;102205.69;5111541;22;20444;-88
2021/06/24 10:48:35;;;;;;;0.10;0.10;;;;;;;24.58;39.29;102198.25;5113044;28;20028;-89
2021/06/24 10:51:05;;;;;;;0.10;0.10;;;;;;;24.66;40.10;102198.69;5110527;28;20100;-84
2021/06/24 10:56:22;;;;;;;0.10;0.10;;;;;;;24.75;40.47;102198.16;5092805;27;20780;-87
2021/06/24 10:58:48;;;;;;;0.85;0.50;;;;;;;24.84;40.75;102196.75;5092115;28;20031;-86
2021/06/24 11:01:15;;;;;;;0.10;0.10;;;;;;;24.85;39.72;102188.50;5092407;28;20041;-87
2021/06/24 11:03:43;;;;;;;0.10;0.10;;;;;;;24.66;40.54;102195.97;5092225;28;20111;-89
2021/06/24 11:08:48;;;;;;;0.10;0.10;;;;;;;24.77;39.48;102185.38;5091787;27;20432;-89
2021/06/24 11:11:16;;;;;;;0.30;0.30;;;;;;;24.58;40.20;102190.13;5073015;28;20127;-90
2021/06/24 11:13:46;;;;;;;1.80;1.02;;;;;;;24.94;40.24;102183.53;5069246;28;20069;-89
2021/06/24 11:19:03;;;;;;;0.20;0.20;;;;;;;24.75;41.76;102181.91;5061047;27;20425;-89
2021/06/24 11:26:57;;;;;;;0.32;0.32;;;;;;;24.92;40.14;102193.56;5104197;27;20194;-86
2021/06/24 11:32:17;;;;;;;0.25;0.25;;;;;;;25.07;40.03;102173.66;5069904;28;20414;-86
2021/06/24 11:34:51;;;;;;;0.22;0.22;;;;;;;25.12;40.02;102168.84;5070735;28;20067;-88
2021/06/24 11:37:23;;;;;;;0.00;0.00;;;;;;;25.04;40.37;102171.16;5070345;28;20114;-84
2021/06/24 11:39:55;;;;;;;;;;;;;;;25.33;39.53;102166.66;5064078;28;20546;-87
2021/06/24 11:42:26;;;;;;;0.10;0.10;;;;;;;25.20;40.37;102171.94;5061642;28;20389;-87
2021/06/24 11:44:53;;;;;;;0.10;0.10;;;;;;;25.37;39.14;102171.91;5059328;28;20424;-91
2021/06/24 11:47:22;;;;;;;0.08;0.08;;;;;;;25.34;37.89;102168.38;5062578;28;20515;-91
2021/06/24 12:01:34;;;;;;;0.20;0.20;;;;;;;25.45;37.71;102162.34;5028898;27;20405;-92
2021/06/24 12:04:08;;;;;;;0.20;0.20;;;;;;;25.63;37.75;102156.72;5018099;28;20049;-93
2021/06/24 12:06:53;;;;;;;0.00;0.00;;;;;;;25.49;38.09;102153.03;5024564;28;20041;-94
2021/06/24 12:09:23;;;;;;;0.25;0.25;;;;;;;25.44;38.18;102149.72;5091534;28;20025;-90
2021/06/24 12:11:53;;;;;;;0.95;0.30;;;;;;;25.52;37.83;102152.84;5026050;28;20026;-94
2021/06/24 12:14:26;;;;;;;5.18;0.60;;;;;;;25.62;38.30;102152.25;5028792;28;20033;-93
2021/06/24 12:20:08;;;;;;;0.10;0.10;;;;;;;25.74;36.90;102142.47;5065677;28;20400;-90